createdAt,value
2024-04-08T10:19:15.768Z,12.70
2024-04-08T10:22:19.996Z,12.86
2024-04-08T10:25:49.741Z,13.09
2024-04-08T10:28:54.244Z,13.18
2024-04-08T10:31:58.494Z,13.52
2024-04-08T10:35:02.250Z,13.79
2024-04-08T10:38:07.261Z,14.05
2024-04-08T10:41:10.823Z,14.37
2024-04-08T10:44:15.183Z,14.87
2024-04-08T10:47:19.074Z,15.38
2024-04-08T10:50:23.206Z,15.92
2024-04-08T10:53:30.984Z,16.41
2024-04-08T10:56:35.630Z,16.81
2024-04-08T10:59:39.838Z,17.30
2024-04-08T11:02:43.747Z,17.69
2024-04-08T11:05:46.993Z,18.13
2024-04-08T11:08:54.192Z,18.55
2024-04-08T11:11:57.572Z,18.86
2024-04-08T11:15:06.162Z,19.14
2024-04-08T11:18:13.606Z,19.43
2024-04-08T11:21:18.020Z,19.59
2024-04-08T11:24:21.943Z,19.85
2024-04-08T11:27:26.142Z,20.02
2024-04-08T11:30:37.190Z,20.22
2024-04-08T11:33:41.581Z,20.37
2024-04-08T11:36:45.637Z,20.64
2024-04-08T11:39:49.569Z,20.86
2024-04-08T11:42:53.856Z,21.00
2024-04-08T11:45:58.982Z,21.26
2024-04-08T11:49:03.898Z,21.39
2024-04-08T11:52:08.363Z,21.62
2024-04-08T11:55:12.261Z,21.77
2024-04-08T11:58:16.363Z,21.97
2024-04-08T12:01:20.397Z,22.17
2024-04-08T12:04:24.338Z,22.36
2024-04-08T12:07:27.687Z,22.45
2024-04-08T12:10:31.852Z,22.68
2024-04-08T12:13:35.259Z,22.81
2024-04-08T12:16:38.886Z,22.97
2024-04-08T12:19:45.518Z,23.12
2024-04-08T12:22:49.502Z,23.26
2024-04-08T12:25:52.793Z,23.39
2024-04-08T12:28:57.331Z,23.60
2024-04-08T12:32:01.031Z,23.67
2024-04-08T12:35:05.524Z,23.87
2024-04-08T12:38:10.834Z,23.90
2024-04-08T12:41:18.094Z,24.02
2024-04-08T12:44:21.488Z,24.17
2024-04-08T12:47:25.515Z,24.31
2024-04-08T12:50:32.250Z,24.52
2024-04-08T12:53:36.939Z,24.55
2024-04-08T12:56:40.340Z,24.70
2024-04-08T12:59:44.174Z,24.77
2024-04-08T13:02:47.822Z,24.79
2024-04-08T13:05:56.498Z,24.94
2024-04-08T13:08:59.698Z,24.84
2024-04-08T13:12:03.954Z,24.86
2024-04-08T13:15:07.470Z,24.93
2024-04-08T13:18:11.744Z,24.97
2024-04-08T13:21:15.430Z,25.04
2024-04-08T13:24:20.547Z,25.12
2024-04-08T13:27:24.551Z,25.22
2024-04-08T13:30:29.003Z,25.29
2024-04-08T13:33:33.235Z,25.46
2024-04-08T13:36:39.337Z,25.52
2024-04-08T13:39:43.499Z,25.52
2024-04-08T13:42:47.325Z,25.52
2024-04-08T13:45:51.223Z,25.48
2024-04-08T13:48:55.764Z,25.43
2024-04-08T13:51:59.600Z,25.11
2024-04-08T13:55:03.956Z,24.81
2024-04-08T13:58:07.411Z,24.89
2024-04-08T14:01:11.961Z,25.02
2024-04-08T14:04:17.099Z,25.14
2024-04-08T14:07:21.084Z,24.73
2024-04-08T14:10:24.876Z,24.33
2024-04-08T14:13:28.833Z,24.51
2024-04-08T14:16:32.987Z,24.49
2024-04-08T14:19:36.108Z,24.61
2024-04-08T14:22:40.703Z,25.16
2024-04-08T14:25:44.250Z,25.53
2024-04-08T14:28:48.985Z,24.88
2024-04-08T14:31:54.763Z,25.15
2024-04-08T14:34:58.796Z,24.91
2024-04-08T14:38:29.865Z,25.03
2024-04-08T14:41:27.019Z,24.97
2024-04-08T14:44:40.280Z,24.89
2024-04-08T14:47:49.058Z,24.97
2024-04-08T14:50:53.022Z,25.06
2024-04-08T14:53:57.037Z,25.16
2024-04-08T14:57:07.519Z,25.19
2024-04-08T15:00:12.109Z,25.40
2024-04-08T15:03:16.851Z,25.49
2024-04-08T15:06:20.834Z,25.62
2024-04-08T15:09:24.041Z,25.56
2024-04-08T15:12:27.999Z,25.59
2024-04-08T15:15:31.170Z,25.59
2024-04-08T15:18:35.610Z,25.18
2024-04-08T15:21:39.842Z,26.02
2024-04-08T15:24:45.667Z,25.60
2024-04-08T15:27:50.020Z,26.60
2024-04-08T15:31:01.159Z,27.00
2024-04-08T15:34:05.971Z,27.33
2024-04-08T15:37:11.689Z,27.82
2024-04-08T15:40:15.535Z,28.24
2024-04-08T15:43:18.889Z,28.61
2024-04-08T15:46:23.538Z,28.58
2024-04-08T15:49:27.193Z,28.36
2024-04-08T15:52:31.032Z,28.58
2024-04-08T15:55:34.576Z,30.87
2024-04-08T15:58:39.096Z,30.05
2024-04-08T16:01:42.873Z,33.20
2024-04-08T16:04:50.744Z,33.09
2024-04-08T16:07:54.866Z,33.27
2024-04-08T16:10:58.703Z,33.16
2024-04-08T16:14:02.517Z,31.39
2024-04-08T16:17:07.493Z,31.42
2024-04-08T16:20:12.171Z,32.41
2024-04-08T16:23:27.261Z,31.75
2024-04-08T16:26:43.064Z,32.36
2024-04-08T16:29:48.823Z,32.19
2024-04-08T16:32:52.890Z,31.63
2024-04-08T16:35:56.459Z,33.31
2024-04-08T16:39:00.427Z,34.10
2024-04-08T16:42:04.742Z,33.66
2024-04-08T16:45:08.684Z,33.22
2024-04-08T16:48:12.807Z,34.03
2024-04-08T16:51:17.376Z,34.39
2024-04-08T16:54:21.212Z,34.53
2024-04-08T16:57:25.067Z,34.97
2024-04-08T17:00:29.113Z,35.20
2024-04-08T17:03:33.384Z,35.76
2024-04-08T17:06:48.316Z,34.13
2024-04-08T17:09:52.029Z,33.06
2024-04-08T17:12:55.796Z,33.00
2024-04-08T17:15:59.759Z,33.07
2024-04-08T17:19:05.265Z,33.20
2024-04-08T17:22:09.205Z,32.86
2024-04-08T17:25:13.037Z,32.55
2024-04-08T17:28:16.789Z,32.92
2024-04-08T17:31:22.135Z,33.31
2024-04-08T17:34:26.369Z,32.73
2024-04-08T17:37:30.721Z,33.13
2024-04-08T17:40:34.163Z,33.36
2024-04-08T17:43:44.848Z,33.21
2024-04-08T17:46:49.522Z,33.24
2024-04-08T17:49:54.325Z,33.71
2024-04-08T17:52:57.459Z,34.43
2024-04-08T17:56:03.582Z,34.21
2024-04-08T17:59:07.046Z,34.70
2024-04-08T18:02:11.318Z,34.76
2024-04-08T18:05:14.847Z,34.50
2024-04-08T18:08:19.557Z,34.48
2024-04-08T18:11:24.278Z,34.42
2024-04-08T18:14:28.052Z,34.28
2024-04-08T18:17:32.271Z,34.23
2024-04-08T18:20:35.938Z,34.53
2024-04-08T18:23:39.948Z,34.69
2024-04-08T18:26:43.291Z,34.73
2024-04-08T18:29:47.728Z,34.94
2024-04-08T18:32:53.926Z,35.10
2024-04-08T18:35:58.457Z,35.47
2024-04-08T18:39:04.179Z,35.77
2024-04-08T18:42:08.598Z,35.98
2024-04-08T18:45:12.086Z,37.73
2024-04-08T18:48:16.430Z,36.70
2024-04-08T18:51:20.271Z,36.71
2024-04-08T18:54:24.688Z,36.77
2024-04-08T18:57:28.095Z,36.67
2024-04-08T19:00:32.559Z,36.21
2024-04-08T19:03:36.209Z,36.70
2024-04-08T19:06:41.678Z,42.07
2024-04-08T19:09:45.913Z,42.09
2024-04-08T19:12:50.355Z,42.20
2024-04-08T19:15:57.847Z,43.91
2024-04-08T19:19:02.115Z,39.83
2024-04-08T19:22:06.044Z,47.11
2024-04-08T19:25:09.950Z,46.84
2024-04-08T19:28:13.736Z,48.49
2024-04-08T19:31:16.865Z,49.57
2024-04-08T19:34:20.655Z,50.32
2024-04-08T19:37:23.892Z,49.81
2024-04-08T19:40:27.698Z,51.26
2024-04-08T19:43:31.551Z,50.88
2024-04-08T19:46:35.688Z,52.29
2024-04-08T19:49:40.444Z,50.97
2024-04-08T19:52:44.447Z,50.38
2024-04-08T19:55:48.434Z,50.89
2024-04-08T19:58:52.938Z,50.99
2024-04-08T20:01:57.325Z,51.14
2024-04-08T20:05:00.871Z,51.11
2024-04-08T20:08:05.369Z,52.25
2024-04-08T20:11:14.177Z,51.36
2024-04-08T20:14:18.060Z,52.59
2024-04-08T20:17:22.003Z,52.50
2024-04-08T20:20:25.638Z,52.16
2024-04-08T20:23:29.668Z,53.96
2024-04-08T20:26:35.280Z,54.47
2024-04-08T20:29:38.954Z,54.10
2024-04-08T20:32:42.757Z,53.04
2024-04-08T20:36:02.031Z,54.10
2024-04-08T20:39:05.508Z,54.70
2024-04-08T20:42:09.920Z,54.47
2024-04-08T20:45:13.376Z,54.39
2024-04-08T20:48:17.279Z,54.50
2024-04-08T20:51:20.881Z,54.00
2024-04-08T20:54:25.192Z,54.33
2024-04-08T20:57:29.086Z,54.56
2024-04-08T21:00:33.614Z,54.99
2024-04-08T21:03:38.109Z,55.27
2024-04-08T21:06:42.664Z,55.86
2024-04-08T21:09:46.174Z,55.21
2024-04-08T21:12:49.814Z,55.14
2024-04-08T21:16:00.145Z,54.70
2024-04-08T21:19:03.763Z,53.73
2024-04-08T21:22:07.034Z,52.49
2024-04-08T21:25:11.402Z,52.56
2024-04-08T21:28:14.831Z,52.27
2024-04-08T21:31:21.114Z,52.17
2024-04-08T21:34:28.156Z,52.38
2024-04-08T21:37:32.461Z,52.47
2024-04-08T21:40:39.413Z,52.43
2024-04-08T21:43:44.647Z,52.38
2024-04-08T21:46:48.256Z,52.42
2024-04-08T21:49:52.757Z,52.39
2024-04-08T21:52:55.899Z,52.18
2024-04-08T21:56:01.932Z,52.30
2024-04-08T21:59:05.016Z,52.34
2024-04-08T22:02:08.452Z,52.63
2024-04-08T22:05:11.611Z,52.72
2024-04-08T22:08:15.186Z,52.99
2024-04-08T22:11:19.427Z,53.01
2024-04-08T22:14:22.599Z,53.07
2024-04-08T22:17:26.310Z,53.00
2024-04-08T22:20:29.654Z,52.91
2024-04-08T22:23:33.252Z,52.30
2024-04-08T22:26:36.514Z,52.22
2024-04-08T22:29:40.816Z,51.77
2024-04-08T22:32:44.600Z,51.74
2024-04-08T22:35:48.570Z,51.67
2024-04-08T22:38:52.524Z,51.78
2024-04-08T22:41:56.412Z,51.94
2024-04-08T22:45:00.325Z,52.18
2024-04-08T22:48:04.346Z,52.28
2024-04-08T22:51:08.382Z,52.25
2024-04-08T22:54:12.762Z,52.33
2024-04-08T22:57:16.681Z,52.49
2024-04-08T23:00:20.349Z,52.59
2024-04-08T23:03:23.553Z,52.80
2024-04-08T23:06:27.074Z,52.79
2024-04-08T23:09:30.412Z,52.77
2024-04-08T23:12:33.811Z,52.70
2024-04-08T23:15:37.826Z,52.60
2024-04-08T23:18:41.824Z,52.48
2024-04-08T23:21:45.729Z,52.54
2024-04-08T23:24:49.119Z,52.60
2024-04-08T23:27:53.256Z,52.38
2024-04-08T23:30:56.965Z,52.55
2024-04-08T23:34:01.322Z,52.61
2024-04-08T23:37:05.066Z,52.46
2024-04-08T23:40:14.079Z,52.18
2024-04-08T23:43:17.723Z,52.19
2024-04-08T23:46:21.706Z,52.19
2024-04-08T23:49:25.160Z,52.06
2024-04-08T23:52:29.025Z,51.57
2024-04-08T23:55:32.558Z,52.04
2024-04-08T23:58:37.411Z,51.72
